• Join FlightAware (Why Join?)
  • Login
  • US Flag 
12:22AM EDT


 

Airport Tracker/Info


-or-


 

Live Flight TrackerFlight Track Log ✈ N110GW ✈ 13-Mar-2014 ✈ KAPF - KHLG

Flight Track Log - Related Links

Times and Time Zones

All times are in EDT time to prevent confusion due to time zone crossing. See the N110GW flight status page for this flight to view local times or setup timezone preferences in your user account.

Time Position Orientation Groundspeed Altitude Reporting Facility
EDT Latitude Longitude Course Direction KTS MPH feet Rate Location/Type
06:50AM 26.2425 -81.8269 354° North 134 154 5,500  Level Miami Center
06:51AM 26.2778 -81.8308 354° North 134 154 7,300 1,980 Climbing Miami Center
06:52AM 26.3256 -81.8350 356° North 145 167 9,500 1,920 Climbing Miami Center
06:53AM 26.3672 -81.8392 355° North 145 167 11,200 1,680 Climbing Miami Center
06:54AM 26.4108 -81.8456 353° North 151 174 12,900 1,680 Climbing Miami Center
06:55AM 26.4544 -81.8497 355° North 151 174 14,600 1,500 Climbing Miami Center
06:56AM 26.4981 -81.8564 352° North 157 181 16,000 1,440 Climbing Miami Center
06:57AM 26.5419 -81.8581 358° North 157 181 17,500 1,260 Climbing Miami Center
06:58AM 26.5817 -81.8597 358° North 157 181 18,600 1,080 Climbing Miami Center
06:59AM 26.6250 -81.8708 347° North 162 186 19,700 660 Climbing Miami Center
07:00AM 26.6811 -81.8758 355° North 172 198 20,000 120 Climbing Miami Center
07:01AM 26.7583 -81.8814 356° North 225 259 20,000 780 Level Miami Center
07:02AM 26.8206 -81.8886 354° North 239 275 21,600 1,440 Climbing Miami Center
07:03AM 26.8731 -81.8792 North 211 243 22,900 1,080 Climbing Miami Center
07:04AM 26.9300 -81.8608 16° North 205 236 23,800 840 Climbing Miami Center
07:05AM 26.9850 -81.8444 15° North 199 229 24,600 780 Climbing Miami Center
07:06AM 27.0442 -81.8236 17° North 204 235 25,400 780 Climbing Miami Center
07:07AM 27.1011 -81.8053 16° North 210 242 26,200 660 Climbing Miami Center
07:08AM 27.1558 -81.7911 13° North 210 242 26,800 360 Climbing Miami Center
07:09AM 27.2150 -81.7703 17° North 210 242 27,000 60 Climbing Miami Center
07:10AM 27.3058 -81.7414 16° North 244 281 27,000  Level Miami Center
07:11AM 27.3711 -81.7208 16° North 256 295 27,000  Level Miami Center
07:12AM 27.4428 -81.6958 17° North 266 306 27,000  Level Miami Center
07:13AM 27.5231 -81.6689 17° North 266 306 27,000  Level Miami Center
07:14AM 27.5969 -81.6461 15° North 266 306 27,000  Level Miami Center
07:15AM 27.6708 -81.6211 17° North 266 306 27,000  Level Miami Center
07:16AM 27.7383 -81.6006 15° North 266 306 27,000  Level Miami Center
07:17AM 27.8119 -81.5778 15° North 266 306 27,000  Level Miami Center
07:18AM 27.8903 -81.5506 17° North 266 306 27,000  Level Miami Center
07:19AM 27.9611 -81.5464 North 260 299 27,000  Level Miami Center
07:20AM 28.0322 -81.5444 North 254 292 27,000  Level Miami Center
07:21AM 28.0886 -81.5444 360° North 254 292 27,000  Level Miami Center
07:22AM 28.1658 -81.5431 North 254 292 27,000  Level Miami Center
07:23AM 28.2411 -81.5414 North 254 292 27,000  Level Miami Center
07:24AM 28.3119 -81.5397 North 254 292 27,000  Level Miami Center
07:25AM 28.3850 -81.5403 360° North 254 292 27,000  Level Miami Center
07:26AM 28.4539 -81.5408 360° North 254 292 27,000  Level Miami Center
07:27AM 28.5269 -81.5392 North 254 292 27,000  Level Miami Center
07:28AM 28.5978 -81.5375 North 254 292 27,000  Level Miami Center
07:29AM 28.6708 -81.5383 359° North 254 292 27,000  Level Miami Center
07:30AM 28.7144 -81.5361 North 253 291 27,000  Level Jacksonville Center
07:31AM 28.7875 -81.5353 North 253 291 27,000  Level Jacksonville Center
07:32AM 28.8586 -81.5319 North 253 291 27,000  Level Jacksonville Center
07:33AM 28.9275 -81.5333 359° North 253 291 27,000  Level Jacksonville Center
07:34AM 29.0006 -81.5322 North 253 291 27,000  Level Jacksonville Center
07:35AM 29.0756 -81.5289 North 253 291 27,000  Level Jacksonville Center
07:36AM 29.1467 -81.5303 359° North 258 297 27,000  Level Jacksonville Center
07:37AM 29.2258 -81.5317 359° North 253 291 27,000  Level Jacksonville Center
07:38AM 29.2947 -81.5283 North 253 291 27,000  Level Jacksonville Center
07:39AM 29.3636 -81.5297 359° North 253 291 27,000  Level Jacksonville Center
07:40AM 29.4367 -81.5261 North 253 291 27,000  Level Jacksonville Center
07:41AM 29.5033 -81.5278 359° North 253 291 27,000  Level Jacksonville Center
07:42AM 29.5744 -81.5267 North 253 291 27,000  Level Jacksonville Center
07:43AM 29.6475 -81.5256 North 253 291 27,000  Level Jacksonville Center
07:44AM 29.7183 -81.5222 North 253 291 27,000  Level Jacksonville Center
07:45AM 29.7894 -81.5214 North 253 291 27,000  Level Jacksonville Center
07:46AM 29.8603 -81.5203 North 253 291 27,000  Level Jacksonville Center
07:47AM 29.9292 -81.5192 North 253 291 27,000  Level Jacksonville Center
07:48AM 30.0003 -81.5183 North 253 291 27,000  Level Jacksonville Center
07:49AM 30.0711 -81.5172 North 253 291 27,000  Level Jacksonville Center
07:50AM 30.1422 -81.5161 North 253 291 27,000  Level Jacksonville Center
07:51AM 30.2131 -81.5153 North 253 291 27,000  Level Jacksonville Center
07:52AM 30.2861 -81.5119 North 253 291 27,000  Level Jacksonville Center
07:53AM 30.3572 -81.5083 North 253 291 27,000  Level Jacksonville Center
07:54AM 30.4303 -81.5025 North 253 291 27,000  Level Jacksonville Center
07:55AM 30.5031 -81.4989 North 253 291 27,000  Level Jacksonville Center
07:56AM 30.5742 -81.4931 North 253 291 27,000  Level Jacksonville Center
07:57AM 30.6408 -81.4897 North 253 291 27,000  Level Jacksonville Center
07:58AM 30.7119 -81.4839 North 253 291 27,000  Level Jacksonville Center
07:59AM 30.7806 -81.4756 North 253 291 27,000  Level Jacksonville Center
08:00AM 30.8578 -81.4672 North 253 291 27,000  Level Jacksonville Center
08:01AM 30.9286 -81.4614 North 253 291 27,000  Level Jacksonville Center
08:02AM 30.9975 -81.4553 North 253 291 27,000  Level Jacksonville Center
08:03AM 31.0664 -81.4519 North 253 291 27,000  Level Jacksonville Center
08:04AM 31.1394 -81.4483 North 258 297 27,000  Level Jacksonville Center
08:05AM 31.2083 -81.4425 North 253 291 27,000  Level Jacksonville Center
08:06AM 31.2731 -81.4367 North 253 291 27,000  Level Jacksonville Center
08:07AM 31.3542 -81.4306 North 253 291 27,000  Level Jacksonville Center
08:08AM 31.4211 -81.4244 North 253 291 27,000  Level Jacksonville Center
08:09AM 31.4983 -81.4208 North 253 291 27,000  Level Jacksonville Center
08:10AM 31.5711 -81.4125 North 260 299 27,000  Level Jacksonville Center
08:11AM 31.6358 -81.4089 North 260 299 27,000  Level Jacksonville Center
08:12AM 31.7153 -81.4028 North 254 292 27,000  Level Jacksonville Center
08:13AM 31.7861 -81.3967 North 254 292 27,000  Level Jacksonville Center
08:14AM 31.8508 -81.3908 North 259 298 27,000  Level Jacksonville Center
08:15AM 31.9322 -81.3847 North 254 292 27,000  Level Jacksonville Center
08:16AM 31.9967 -81.3811 North 254 292 27,000  Level Jacksonville Center
08:17AM 32.0636 -81.3750 North 254 292 27,000  Level Jacksonville Center
08:18AM 32.1364 -81.3689 North 254 292 27,000  Level Jacksonville Center
08:19AM 32.2033 -81.3606 North 254 292 27,000  Level Jacksonville Center
08:20AM 32.2761 -81.3569 North 254 292 27,000  Level Jacksonville Center
08:21AM 32.3450 -81.3533 North 254 292 27,000  Level Jacksonville Center
08:22AM 32.4139 -81.3447 North 249 287 27,000  Level Jacksonville Center
08:23AM 32.4869 -81.3411 North 249 287 27,000  Level Jacksonville Center
08:24AM 32.5578 -81.3347 North 244 281 27,000  Level Jacksonville Center
08:25AM 32.6183 -81.3314 North 244 281 27,000  Level Jacksonville Center
08:26AM 32.6767 -81.3278 North 237 273 27,000  Level Jacksonville Center
08:27AM 32.7539 -81.3167 North 237 273 27,000  Level Jacksonville Center
08:28AM 32.8183 -81.3131 North 231 266 27,000  Level Jacksonville Center
08:29AM 32.8853 -81.3069 North 237 273 27,000  Level Jacksonville Center
08:30AM 32.9519 -81.3008 North 237 273 27,000  Level Jacksonville Center
08:31AM 33.0167 -81.2972 North 232 267 27,000  Level Jacksonville Center
08:32AM 33.0853 -81.2911 North 232 267 27,000  Level Jacksonville Center
08:33AM 33.1500 -81.2850 North 232 267 27,000  Level Jacksonville Center
08:34AM 33.2147 -81.2811 North 232 267 27,000  Level Jacksonville Center
08:35AM 33.2772 -81.2750 North 232 267 27,000  Level Jacksonville Center
08:36AM 33.3417 -81.2689 North 232 267 27,000  Level Jacksonville Center
08:37AM 33.4044 -81.2653 North 232 267 27,000  Level Jacksonville Center
08:38AM 33.4689 -81.2592 North 232 267 27,000  Level Jacksonville Center
08:39AM 33.5336 -81.2531 North 232 267 27,000  Level Jacksonville Center
08:40AM 33.5983 -81.2467 North 232 267 27,000  Level Jacksonville Center
08:41AM 33.6628 -81.2431 North 232 267 27,000  Level Jacksonville Center
08:42AM 33.7275 -81.2369 North 232 267 27,000  Level Jacksonville Center
08:43AM 33.7961 -81.2306 North 232 267 27,000  Level Jacksonville Center
08:44AM 33.8589 -81.2244 North 232 267 27,000  Level Jacksonville Center
08:45AM 33.9214 -81.2208 North 226 260 27,000  Level Jacksonville Center
08:46AM 33.9858 -81.2144 North 226 260 27,000  Level Jacksonville Center
08:47AM 34.0483 -81.2108 North 226 260 27,000  Level Jacksonville Center
08:49AM 34.1831 -81.1989 North 220 253 27,000  Level Atlanta Center
08:50AM 34.2475 -81.1917 North 215 247 27,000  Level Atlanta Center
08:51AM 34.3081 -81.1869 North 215 247 27,000  Level Atlanta Center
08:52AM 34.3706 -81.1825 North 215 247 27,000  Level Atlanta Center
08:53AM 34.4331 -81.1803 North 215 247 27,000  Level Atlanta Center
08:54AM 34.4997 -81.1731 North 220 253 27,000  Level Atlanta Center
08:55AM 34.5642 -81.1683 North 225 259 27,000  Level Atlanta Center
08:56AM 34.6308 -81.1633 North 232 267 27,000  Level Atlanta Center
08:57AM 34.6956 -81.1586 North 232 267 27,000  Level Atlanta Center
08:58AM 34.7642 -81.1514 North 232 267 27,000  Level Atlanta Center
08:59AM 34.8308 -81.1439 North 232 267 27,000  Level Atlanta Center
09:00AM 34.9017 -81.1389 North 237 273 27,000  Level Atlanta Center
09:01AM 34.9703 -81.1339 North 237 273 27,000  Level Atlanta Center
09:02AM 35.0411 -81.1264 North 242 278 27,000  Level Atlanta Center
09:03AM 35.1097 -81.1214 North 247 284 27,000  Level Atlanta Center
09:04AM 35.1786 -81.1139 North 247 284 27,000  Level Atlanta Center
09:05AM 35.2492 -81.1064 North 252 290 27,000  Level Atlanta Center
09:06AM 35.3222 -81.1014 North 252 290 27,000  Level Atlanta Center
09:07AM 35.3931 -81.0936 North 252 290 27,000  Level Atlanta Center
09:08AM 35.4658 -81.0886 North 252 290 27,000  Level Atlanta Center
09:09AM 35.5386 -81.0808 North 252 290 27,000  Level Atlanta Center
09:10AM 35.6094 -81.0731 North 252 290 27,000  Level Atlanta Center
09:11AM 35.6906 -81.0675 North 252 290 27,000  Level Atlanta Center
09:12AM 35.7636 -81.0625 North 252 290 27,000  Level Atlanta Center
09:13AM 35.8342 -81.0547 North 252 290 27,000  Level Atlanta Center
09:14AM 35.9092 -81.0469 North 259 298 27,000  Level Atlanta Center
09:15AM 35.9819 -81.0417 North 259 298 27,000  Level Atlanta Center
09:16AM 36.0508 -81.0364 North 253 291 27,000  Level Atlanta Center
09:17AM 36.1214 -81.0286 North 253 291 27,000  Level Atlanta Center
09:18AM 36.1942 -81.0208 North 253 291 27,000  Level Atlanta Center
09:19AM 36.2650 -81.0156 North 253 291 27,000  Level Atlanta Center
09:20AM 36.3378 -81.0078 North 253 291 27,000  Level Atlanta Center
09:21AM 36.4086 -81.0000 North 253 291 27,000  Level Atlanta Center
09:22AM 36.4772 -80.9972 North 253 291 27,000  Level Atlanta Center
09:23AM 36.5500 -80.9894 North 253 291 27,000  Level Atlanta Center
09:24AM 36.6250 -80.9814 North 253 291 27,000  Level Atlanta Center
09:25AM 36.6958 -80.9761 North 253 291 27,000  Level Atlanta Center
09:26AM 36.7622 -80.9708 North 253 291 27,000  Level Atlanta Center
09:27AM 36.8311 -80.9656 North 245 282 27,000  Level Atlanta Center
09:28AM 36.8997 -80.9578 North 240 276 27,000  Level Atlanta Center
09:31AM 37.0575 -80.9439 North 243 280 27,000  Level Indianapolis Center
09:32AM 37.1333 -80.9403 North 237 273 27,000  Level Indianapolis Center
09:33AM 37.1967 -80.9383 North 233 268 27,000  Level Indianapolis Center
09:34AM 37.2572 -80.9347 North 230 265 27,000  Level Indianapolis Center
09:35AM 37.3189 -80.9322 North 229 264 27,000  Level Indianapolis Center
09:36AM 37.3903 -80.9294 North 224 258 27,000  Level Indianapolis Center
09:37AM 37.4500 -80.9267 North 223 257 27,000  Level Indianapolis Center
09:38AM 37.5097 -80.9239 North 222 255 27,000  Level Indianapolis Center
09:39AM 37.5739 -80.9222 North 227 261 27,000  Level Indianapolis Center
09:40AM 37.6472 -80.9183 North 227 261 27,000  Level Indianapolis Center
09:41AM 37.7078 -80.9158 North 227 261 27,000  Level Indianapolis Center
09:42AM 37.7700 -80.9122 North 227 261 27,000  Level Indianapolis Center
09:43AM 37.8361 -80.9111 North 227 261 27,000  Level Indianapolis Center
09:44AM 37.8978 -80.9075 North 226 260 27,000  Level Indianapolis Center
09:45AM 37.9600 -80.9061 North 226 260 27,000  Level Indianapolis Center
09:46AM 38.0203 -80.9036 North 222 255 27,000  Level Indianapolis Center
09:47AM 38.0919 -80.9000 North 219 252 27,000  Level Indianapolis Center
09:48AM 38.1506 -80.8978 North 215 247 27,000 -120 Level Indianapolis Center
09:49AM 38.2092 -80.8961 North 213 245 26,800 -300 Descending Indianapolis Center
09:50AM 38.2675 -80.8931 North 212 244 26,400 -660 Descending Indianapolis Center
09:51AM 38.3236 -80.8894 North 206 237 25,500 -900 Descending Indianapolis Center
09:52AM 38.3817 -80.8883 North 206 237 24,600 -1,140 Descending Indianapolis Center
09:53AM 38.4483 -80.8847 North 205 236 23,200 -1,200 Descending Indianapolis Center
09:54AM 38.5042 -80.8828 North 205 236 22,100 -1,020 Descending Indianapolis Center
09:56AM 38.5589 -80.8808 North 202 232 21,100 -1,080 Descending Indianapolis Center
09:57AM 38.6133 -80.8781 North 198 228 19,900 -1,020 Descending Indianapolis Center
09:58AM 38.6686 -80.8758 North 198 228 19,000 -480 Descending Indianapolis Center
09:59AM 38.7292 -80.8731 North 192 221 19,000  Level Indianapolis Center
10:00AM 38.7789 -80.8708 North 182 209 19,000  Level Indianapolis Center
10:01AM 38.8344 -80.8683 North 193 222 19,000  Level Indianapolis Center
10:02AM 38.8911 -80.8661 North 198 228 19,000 -60 Level Indianapolis Center
10:03AM 38.9481 -80.8636 North 200 230 18,900 -480 Descending Indianapolis Center
10:04AM 39.0067 -80.8611 North 205 236 18,100 -720 Descending Indianapolis Center
10:05AM 39.0789 -80.8572 North 212 244 17,500 -660 Descending Indianapolis Center
10:06AM 39.1372 -80.8553 North 212 244 16,800 -660 Descending Indianapolis Center
10:07AM 39.1956 -80.8525 North 212 244 16,200 -600 Descending Indianapolis Center
10:08AM 39.2528 -80.8508 North 211 243 15,600 -540 Descending Indianapolis Center
10:09AM 39.3100 -80.8478 North 206 237 15,100 -540 Descending Indianapolis Center
10:10AM 39.3656 -80.8458 North 205 236 14,500 -720 Descending Indianapolis Center
10:11AM 39.4244 -80.8431 North 206 237 13,700 -900 Descending Indianapolis Center
10:12AM 39.4950 -80.8392 North 208 239 12,700 -1,020 Descending Indianapolis Center
10:13AM 39.5533 -80.8378 North 208 239 11,700 -1,020 Descending Indianapolis Center
10:14AM 39.6119 -80.8344 North 208 239 10,700 -900 Descending Indianapolis Center
10:15AM 39.6703 -80.8317 North 209 241 9,900 -720 Descending Indianapolis Center
10:16AM 39.7281 -80.8303 North 209 241 9,200 -420 Descending Indianapolis Center
10:17AM 39.7847 -80.8283 North 208 239 9,100 -600 Descending Indianapolis Center
10:18AM 39.8486 -80.8225 North 192 221 8,000 -1,140 Descending Indianapolis Center
10:19AM 39.9036 -80.8214 North 194 223 6,800 -1,080 Descending Indianapolis Center
10:20AM 39.9508 -80.8189 North 194 223 5,800 -1,260 Descending Indianapolis Center
10:22AM 39.9753 -80.7189 72° East 213 245 4,100 -840 Descending Cleveland Center
10:23AM 39.9897 -80.6531 74° East 203 234 4,000 -60 Descending Cleveland Center
10:24AM 40.0058 -80.5778 74° East 189 217 4,000  Level Cleveland Center
10:25AM 40.0436 -80.5525 27° Northeast 178 205 4,000 -300 Level Cleveland Center
10:26AM 40.0739 -80.5711 335° Northwest 143 165 3,400 -600 Descending Cleveland Center
10:27AM 40.0986 -80.5903 329° Northwest 120 138 2,800 -540 Descending Cleveland Center
10:28AM 40.1228 -80.6086 330° Northwest 109 125 2,300 -540 Descending Cleveland Center
10:29AM 40.1472 -80.6250 333° Northwest 105 121 1,700 -420 Descending Cleveland Center
10:30AM 40.1706 -80.6436 329° Northwest 99 114 1,500 -240 Descending Cleveland Center